Time;durP1;ratioP1;P1;durP2;ratioP2;P2;SDS_P1;SDS_P2;PMS_P1;PMS_P2;Temp;Humidity;BMP_temperature;BMP_pressure;BME280_temperature;BME280_humidity;BME280_pressure;Samples;Min_cycle;Max_cycle;Signal;HPM_P1;HPM_P2
2021/09/12 00:01:00;;;;;;;19.30;15.43;;;18.50;93.20;;;;;;5034082;28;20053;-81
2021/09/12 00:03:25;;;;;;;18.58;12.95;;;18.50;93.30;;;;;;5033085;28;20025;-82
2021/09/12 00:05:51;;;;;;;27.88;15.93;;;18.60;93.30;;;;;;5049720;28;20391;-82
2021/09/12 00:08:17;;;;;;;27.30;16.33;;;18.50;93.30;;;;;;5034261;28;20064;-82
2021/09/12 00:10:43;;;;;;;18.02;15.00;;;18.50;93.30;;;;;;5049618;28;20466;-82
2021/09/12 00:13:08;;;;;;;20.83;14.77;;;18.50;93.40;;;;;;5032679;28;20037;-82
2021/09/12 00:15:34;;;;;;;20.20;13.00;;;18.50;93.40;;;;;;5032561;28;20021;-81
2021/09/12 00:18:00;;;;;;;24.13;16.27;;;18.50;93.40;;;;;;5032799;28;20026;-82
2021/09/12 00:20:25;;;;;;;26.30;16.58;;;18.50;93.40;;;;;;5034232;28;20026;-82
2021/09/12 00:22:51;;;;;;;20.23;14.02;;;18.50;93.40;;;;;;5047937;28;20474;-81
2021/09/12 00:25:17;;;;;;;17.75;13.73;;;18.50;93.40;;;;;;5038782;28;20032;-80
2021/09/12 00:27:43;;;;;;;22.58;15.02;;;18.50;93.40;;;;;;5063592;28;20137;-80
2021/09/12 00:30:09;;;;;;;27.75;18.25;;;18.50;93.30;;;;;;5040127;28;20492;-80
2021/09/12 00:32:40;;;;;;;21.80;14.40;;;18.50;93.40;;;;;;5038842;28;20037;-77
2021/09/12 00:35:06;;;;;;;24.35;14.68;;;18.50;93.50;;;;;;5051372;28;20025;-77
2021/09/12 00:37:32;;;;;;;22.33;15.02;;;18.50;93.50;;;;;;5051709;28;20021;-77
2021/09/12 00:39:58;;;;;;;39.63;17.80;;;18.40;93.50;;;;;;5041858;28;20032;-78
2021/09/12 00:42:23;;;;;;;23.92;13.85;;;18.40;93.40;;;;;;5050147;28;20037;-79
2021/09/12 00:44:50;;;;;;;18.67;12.50;;;18.40;93.30;;;;;;5051451;28;20025;-80
2021/09/12 00:47:15;;;;;;;16.80;11.93;;;18.40;93.30;;;;;;5052768;28;20461;-80
2021/09/12 00:49:42;;;;;;;20.67;12.73;;;18.30;93.10;;;;;;5050237;28;20044;-80
2021/09/12 00:52:13;;;;;;;15.05;11.13;;;18.30;93.10;;;;;;5051447;28;20570;-78
2021/09/12 00:54:40;;;;;;;19.45;10.93;;;18.20;93.00;;;;;;5052081;28;20013;-76
2021/09/12 00:57:08;;;;;;;18.13;10.77;;;18.20;92.80;;;;;;5052241;28;20025;-77
2021/09/12 00:59:39;;;;;;;16.15;9.90;;;18.10;92.70;;;;;;5033731;28;20405;-76
2021/09/12 01:02:07;;;;;;;18.15;9.95;;;18.00;92.80;;;;;;5040306;28;20114;-76
2021/09/12 01:04:34;;;;;;;20.63;10.55;;;18.00;92.70;;;;;;5034174;28;20136;-77
2021/09/12 01:07:01;;;;;;;16.73;9.23;;;17.90;92.60;;;;;;5034041;28;20029;-77
2021/09/12 01:09:27;;;;;;;18.60;10.63;;;17.90;92.70;;;;;;5050598;28;20028;-77
2021/09/12 01:11:58;;;;;;;16.77;9.80;;;17.80;92.60;;;;;;5039483;28;20033;-77
2021/09/12 01:14:30;;;;;;;16.92;10.02;;;17.70;92.50;;;;;;5043861;28;20112;-77
2021/09/12 01:16:56;;;;;;;18.25;9.27;;;17.70;92.60;;;;;;5028594;28;20029;-77
2021/09/12 01:19:23;;;;;;;17.40;10.00;;;17.60;92.50;;;;;;5034113;28;20032;-77
2021/09/12 01:21:53;;;;;;;19.95;9.50;;;17.60;92.40;;;;;;5034632;28;20029;-77
2021/09/12 01:24:18;;;;;;;15.60;8.50;;;17.50;92.40;;;;;;5032707;28;20116;-77
2021/09/12 01:26:44;;;;;;;16.05;9.50;;;17.50;92.50;;;;;;5033199;28;20127;-77
2021/09/12 01:29:13;;;;;;;17.55;9.43;;;17.40;92.40;;;;;;5012892;28;20418;-77
2021/09/12 01:31:39;;;;;;;16.98;9.25;;;17.40;92.30;;;;;;5051086;28;20037;-76
2021/09/12 01:34:04;;;;;;;25.15;10.75;;;17.30;92.30;;;;;;5035062;28;20564;-76
2021/09/12 01:36:31;;;;;;;13.63;9.38;;;17.20;92.60;;;;;;5050756;28;20083;-77
2021/09/12 01:38:57;;;;;;;20.50;9.63;;;17.20;92.40;;;;;;5048247;28;20096;-79
2021/09/12 01:41:23;;;;;;;19.63;10.70;;;17.10;92.40;;;;;;5032127;28;20108;-79
2021/09/12 01:43:50;;;;;;;16.23;9.57;;;17.10;92.40;;;;;;5035233;28;20029;-78
2021/09/12 01:46:16;;;;;;;19.45;10.13;;;17.10;92.40;;;;;;5045271;28;20027;-79
2021/09/12 01:48:43;;;;;;;17.38;9.43;;;17.00;92.40;;;;;;5032559;28;20028;-79
2021/09/12 01:51:09;;;;;;;17.63;10.38;;;17.00;92.40;;;;;;5050160;28;20029;-79
2021/09/12 01:53:35;;;;;;;15.93;8.63;;;16.90;92.40;;;;;;5027554;28;20120;-78
2021/09/12 01:56:01;;;;;;;15.93;9.52;;;16.90;92.40;;;;;;5027128;28;20762;-79
2021/09/12 01:58:27;;;;;;;16.95;9.75;;;16.90;92.40;;;;;;5052976;28;20028;-79
2021/09/12 02:00:52;;;;;;;17.33;10.63;;;16.90;92.40;;;;;;5050007;28;20494;-79
2021/09/12 02:03:18;;;;;;;13.98;9.13;;;16.80;92.30;;;;;;5058329;28;20041;-79
2021/09/12 02:05:44;;;;;;;16.40;9.18;;;16.80;92.30;;;;;;5017201;28;20079;-79
2021/09/12 02:08:09;;;;;;;14.18;9.65;;;16.80;92.30;;;;;;5050983;28;20033;-79
2021/09/12 02:10:35;;;;;;;13.68;8.43;;;16.80;92.30;;;;;;5051028;28;20064;-79
2021/09/12 02:13:00;;;;;;;16.85;8.77;;;16.70;92.20;;;;;;5038812;28;20040;-79
2021/09/12 02:15:26;;;;;;;11.98;8.02;;;16.80;92.20;;;;;;5020215;28;20389;-79
2021/09/12 02:17:52;;;;;;;17.02;9.55;;;16.70;92.20;;;;;;5050039;28;20025;-79
2021/09/12 02:20:17;;;;;;;15.77;7.55;;;16.70;92.20;;;;;;5052276;28;20044;-79
2021/09/12 02:22:43;;;;;;;15.98;9.25;;;16.70;92.20;;;;;;5052151;28;20112;-79
2021/09/12 02:25:09;;;;;;;15.98;9.43;;;16.60;92.20;;;;;;5034006;28;20044;-79
2021/09/12 02:27:35;;;;;;;12.85;8.10;;;16.60;92.10;;;;;;5033935;28;20462;-79
2021/09/12 02:30:01;;;;;;;19.40;9.48;;;16.60;92.10;;;;;;5035857;28;20116;-79
2021/09/12 02:32:26;;;;;;;11.15;8.43;;;16.60;92.10;;;;;;5044108;28;20052;-78
2021/09/12 02:34:53;;;;;;;15.65;8.88;;;16.50;92.10;;;;;;5034389;28;20033;-79
2021/09/12 02:37:18;;;;;;;13.88;8.85;;;16.40;92.10;;;;;;5054354;28;20025;-79
2021/09/12 02:39:44;;;;;;;14.07;8.52;;;16.40;92.10;;;;;;5055277;28;20017;-79
2021/09/12 02:42:09;;;;;;;18.75;9.45;;;16.40;92.10;;;;;;5055127;28;20060;-79
2021/09/12 02:44:35;;;;;;;14.25;9.30;;;16.40;92.10;;;;;;5054336;28;20371;-79
2021/09/12 02:47:01;;;;;;;16.05;9.32;;;16.30;92.10;;;;;;5045838;28;20037;-79
2021/09/12 02:49:26;;;;;;;16.15;8.95;;;16.30;92.10;;;;;;5035675;28;20029;-79
2021/09/12 02:51:52;;;;;;;11.32;8.70;;;16.30;92.10;;;;;;5044161;28;20359;-79
2021/09/12 02:54:17;;;;;;;14.73;8.48;;;16.30;92.20;;;;;;5022893;28;20071;-79
2021/09/12 02:56:43;;;;;;;13.85;9.70;;;16.20;92.20;;;;;;5041350;28;20390;-79
2021/09/12 02:59:09;;;;;;;14.50;8.77;;;16.20;92.20;;;;;;5019810;28;20025;-79
2021/09/12 03:01:34;;;;;;;21.90;9.65;;;16.20;92.10;;;;;;5034232;28;20042;-78
2021/09/12 03:04:00;;;;;;;14.52;9.00;;;16.20;92.10;;;;;;5031556;28;20095;-79
2021/09/12 03:06:25;;;;;;;11.60;7.95;;;16.20;92.00;;;;;;5037253;28;20056;-79
2021/09/12 03:08:51;;;;;;;15.32;8.02;;;16.20;92.10;;;;;;5036609;28;20052;-79
2021/09/12 03:11:17;;;;;;;12.73;7.78;;;16.10;92.10;;;;;;5054137;28;20037;-78
2021/09/12 03:13:43;;;;;;;14.25;8.50;;;16.10;92.10;;;;;;5049320;28;20471;-79
2021/09/12 03:16:08;;;;;;;15.13;8.00;;;16.10;92.10;;;;;;5019233;28;20051;-79
2021/09/12 03:18:34;;;;;;;15.07;7.88;;;16.10;92.10;;;;;;5036143;28;20025;-79
2021/09/12 03:20:59;;;;;;;11.18;7.63;;;16.10;92.20;;;;;;5053840;28;20031;-79
2021/09/12 03:23:25;;;;;;;15.38;7.95;;;16.10;92.20;;;;;;5050336;28;20040;-79
2021/09/12 03:25:50;;;;;;;14.82;7.95;;;16.00;92.30;;;;;;5037892;28;20612;-79
2021/09/12 03:28:16;;;;;;;15.98;8.07;;;16.00;92.30;;;;;;5036267;28;20039;-79
2021/09/12 03:30:42;;;;;;;18.20;9.43;;;16.00;92.40;;;;;;5053378;28;20401;-79
2021/09/12 03:33:07;;;;;;;12.18;7.05;;;16.00;92.30;;;;;;5050465;28;20064;-79
2021/09/12 03:35:33;;;;;;;16.23;7.70;;;16.00;92.30;;;;;;5036695;28;20025;-79
2021/09/12 03:37:59;;;;;;;13.02;7.78;;;16.00;92.30;;;;;;5052648;28;20019;-79
2021/09/12 03:40:24;;;;;;;14.25;8.45;;;16.00;92.20;;;;;;5003662;28;20358;-79
2021/09/12 03:42:50;;;;;;;13.18;7.55;;;15.90;92.10;;;;;;5030878;28;20033;-79
2021/09/12 03:45:15;;;;;;;11.20;6.95;;;15.90;92.10;;;;;;5047609;28;20025;-79
2021/09/12 03:47:41;;;;;;;12.70;7.47;;;15.80;92.10;;;;;;5036043;28;20433;-78
2021/09/12 03:50:07;;;;;;;12.82;7.60;;;15.80;92.10;;;;;;5035282;28;20028;-79
2021/09/12 03:52:33;;;;;;;13.32;8.07;;;15.80;92.10;;;;;;5039879;28;20112;-79
2021/09/12 03:54:58;;;;;;;13.15;7.60;;;15.80;92.10;;;;;;5038576;28;20100;-79
2021/09/12 03:57:24;;;;;;;12.18;6.43;;;15.70;92.10;;;;;;5033940;28;20025;-87
2021/09/12 03:59:51;;;;;;;15.93;7.80;;;15.80;92.10;;;;;;5053130;28;20086;-87
2021/09/12 04:02:18;;;;;;;12.32;8.25;;;15.70;92.10;;;;;;5054014;28;20475;-87
2021/09/12 04:04:43;;;;;;;18.42;8.13;;;15.70;92.10;;;;;;5052176;28;20481;-86
2021/09/12 04:07:09;;;;;;;20.27;7.78;;;15.70;92.00;;;;;;5036287;28;20112;-87
2021/09/12 04:09:34;;;;;;;19.98;8.88;;;15.70;92.00;;;;;;5036442;28;20025;-87
2021/09/12 04:12:00;;;;;;;12.98;8.75;;;15.70;92.00;;;;;;5024312;28;20038;-87
2021/09/12 04:14:26;;;;;;;18.88;8.93;;;15.60;92.00;;;;;;5034117;28;20026;-87
2021/09/12 04:16:51;;;;;;;13.10;8.55;;;15.60;91.90;;;;;;5015132;28;20037;-87
2021/09/12 04:19:17;;;;;;;12.68;7.90;;;15.60;92.00;;;;;;5050365;28;20025;-87
2021/09/12 04:21:43;;;;;;;11.43;7.80;;;15.60;92.10;;;;;;5031192;28;20029;-87
2021/09/12 04:24:09;;;;;;;16.33;8.20;;;15.50;92.10;;;;;;5051339;28;20060;-87
2021/09/12 04:26:34;;;;;;;17.40;7.25;;;15.50;92.00;;;;;;5050948;28;20628;-87
2021/09/12 04:29:00;;;;;;;12.13;7.40;;;15.50;91.90;;;;;;5016285;28;20026;-87
2021/09/12 04:31:25;;;;;;;11.52;8.25;;;15.50;92.20;;;;;;5016497;28;20065;-87
2021/09/12 04:33:51;;;;;;;12.60;8.25;;;15.50;91.90;;;;;;5034941;28;20108;-87
2021/09/12 04:36:17;;;;;;;13.98;7.30;;;15.40;91.90;;;;;;5043617;28;20478;-87
2021/09/12 04:38:42;;;;;;;16.67;8.13;;;15.40;91.90;;;;;;5053420;28;20033;-87
2021/09/12 04:41:08;;;;;;;12.85;7.40;;;15.40;92.20;;;;;;5052819;28;20036;-87
2021/09/12 04:43:34;;;;;;;14.63;7.82;;;15.30;91.90;;;;;;5043346;28;20033;-87
2021/09/12 04:45:59;;;;;;;13.63;8.13;;;15.30;92.00;;;;;;5052108;28;20120;-87
2021/09/12 04:48:25;;;;;;;15.73;8.18;;;15.30;91.90;;;;;;5049327;28;20134;-87
2021/09/12 04:50:52;;;;;;;11.82;7.55;;;15.20;91.90;;;;;;5039563;28;20116;-87
2021/09/12 04:53:17;;;;;;;13.07;7.63;;;15.30;91.90;;;;;;5051532;28;20021;-85
2021/09/12 04:55:43;;;;;;;10.95;6.95;;;15.20;91.90;;;;;;5050968;28;20033;-87
2021/09/12 04:58:09;;;;;;;13.57;7.47;;;15.20;91.90;;;;;;5034941;28;20037;-87
2021/09/12 05:00:34;;;;;;;10.98;7.63;;;15.20;91.80;;;;;;5050983;28;20090;-87
2021/09/12 05:03:00;;;;;;;10.38;7.65;;;15.10;91.80;;;;;;5035495;28;20087;-87
2021/09/12 05:05:26;;;;;;;18.08;8.57;;;15.10;91.90;;;;;;5051871;28;20436;-86
2021/09/12 05:07:54;;;;;;;11.50;6.95;;;15.10;91.90;;;;;;5035043;28;20033;-87
2021/09/12 05:10:20;;;;;;;12.23;7.50;;;15.10;91.90;;;;;;5022986;28;20029;-87
2021/09/12 05:12:46;;;;;;;12.80;7.53;;;15.10;92.00;;;;;;5045546;28;20033;-87
2021/09/12 05:15:12;;;;;;;16.90;6.75;;;15.10;92.00;;;;;;5052819;28;20040;-87
2021/09/12 05:17:37;;;;;;;16.25;7.15;;;15.10;92.10;;;;;;5052328;28;20044;-87
2021/09/12 05:20:05;;;;;;;14.20;7.30;;;15.20;92.20;;;;;;5052143;28;20029;-87
2021/09/12 05:22:30;;;;;;;14.00;8.18;;;15.20;92.20;;;;;;5051587;28;20033;-87
2021/09/12 05:24:56;;;;;;;14.40;7.43;;;15.30;92.30;;;;;;5026982;28;20030;-87
2021/09/12 05:27:22;;;;;;;10.70;7.75;;;15.30;92.30;;;;;;5052228;28;20059;-87
2021/09/12 05:29:47;;;;;;;17.10;7.20;;;15.30;92.30;;;;;;5008483;28;20034;-87
2021/09/12 05:32:13;;;;;;;13.27;7.13;;;15.40;92.30;;;;;;5033382;28;20123;-87
2021/09/12 05:34:39;;;;;;;11.88;7.13;;;15.40;92.30;;;;;;5031804;28;20041;-87
2021/09/12 05:37:05;;;;;;;9.60;6.35;;;15.40;92.20;;;;;;5026343;28;20033;-87
2021/09/12 05:39:30;;;;;;;19.35;7.20;;;15.50;92.30;;;;;;5041420;28;20367;-87
2021/09/12 05:41:56;;;;;;;14.85;6.90;;;15.50;92.30;;;;;;5052191;28;20056;-86
2021/09/12 05:44:21;;;;;;;10.23;6.53;;;15.60;92.30;;;;;;5052383;28;20029;-85
2021/09/12 05:46:51;;;;;;;11.40;7.20;;;15.60;92.40;;;;;;5035869;28;20505;-87
2021/09/12 05:49:16;;;;;;;11.70;7.35;;;15.60;92.30;;;;;;5047129;28;20045;-86
2021/09/12 05:51:42;;;;;;;13.90;7.38;;;15.60;92.40;;;;;;5041185;28;20041;-88
2021/09/12 05:54:08;;;;;;;11.10;6.65;;;15.70;92.50;;;;;;5046779;28;20036;-87
2021/09/12 05:56:34;;;;;;;13.70;6.10;;;15.70;92.50;;;;;;5048893;28;20040;-87
2021/09/12 05:58:59;;;;;;;16.35;7.20;;;15.70;92.70;;;;;;5033283;28;20021;-88
2021/09/12 06:01:25;;;;;;;12.00;7.03;;;15.80;92.40;;;;;;5034570;28;20053;-88
2021/09/12 06:03:51;;;;;;;11.80;7.30;;;15.80;92.40;;;;;;5055187;28;20048;-87
2021/09/12 06:06:16;;;;;;;11.82;6.85;;;15.80;92.30;;;;;;5054556;28;20060;-87
2021/09/12 06:08:42;;;;;;;11.75;6.72;;;15.90;92.40;;;;;;5036193;28;20030;-87
2021/09/12 06:11:10;;;;;;;11.05;6.43;;;15.90;92.40;;;;;;5054921;28;20036;-87
2021/09/12 06:13:37;;;;;;;14.70;6.15;;;15.90;92.40;;;;;;5056184;28;20021;-88
2021/09/12 06:16:03;;;;;;;10.20;6.07;;;16.00;92.40;;;;;;5055147;28;20029;-87
2021/09/12 06:18:29;;;;;;;12.27;6.70;;;16.00;92.30;;;;;;5021497;28;20065;-87
2021/09/12 06:20:55;;;;;;;13.82;6.72;;;16.00;92.30;;;;;;5038396;28;20512;-88
2021/09/12 06:23:20;;;;;;;12.77;7.05;;;16.00;92.40;;;;;;5055597;28;20029;-87
2021/09/12 06:25:46;;;;;;;12.35;6.15;;;16.00;92.70;;;;;;5026849;28;20509;-87
2021/09/12 06:28:11;;;;;;;16.67;6.55;;;16.00;92.40;;;;;;5053495;28;20072;-88
2021/09/12 06:30:37;;;;;;;9.57;6.40;;;16.10;92.40;;;;;;5053910;28;20033;-88
2021/09/12 06:33:03;;;;;;;9.07;5.75;;;16.10;92.40;;;;;;5054867;28;20033;-88
2021/09/12 06:35:28;;;;;;;15.88;6.68;;;16.20;92.40;;;;;;5053953;28;20390;-87
2021/09/12 06:37:54;;;;;;;12.20;6.28;;;16.20;92.30;;;;;;5048973;28;20032;-87
2021/09/12 06:40:21;;;;;;;9.65;5.35;;;16.30;92.30;;;;;;5043202;28;20074;-88
2021/09/12 06:42:46;;;;;;;9.85;5.93;;;16.30;92.30;;;;;;5036992;28;20037;-88
2021/09/12 06:45:12;;;;;;;11.52;6.50;;;16.30;92.20;;;;;;5023503;28;20037;-88
2021/09/12 06:47:38;;;;;;;11.70;7.18;;;16.30;92.20;;;;;;5033896;28;20061;-88
2021/09/12 06:50:04;;;;;;;11.40;6.75;;;16.40;92.30;;;;;;5053681;28;20527;-88
2021/09/12 06:52:29;;;;;;;11.10;6.72;;;16.30;92.20;;;;;;5049734;28;20442;-88
2021/09/12 06:54:56;;;;;;;9.55;5.97;;;16.40;92.20;;;;;;5036071;28;20052;-88
2021/09/12 06:57:22;;;;;;;10.10;5.57;;;16.40;92.20;;;;;;5036645;28;20059;-86
2021/09/12 06:59:47;;;;;;;10.00;6.03;;;16.50;92.20;;;;;;5053607;28;20037;-87
2021/09/12 07:02:13;;;;;;;12.70;5.90;;;16.60;92.30;;;;;;5051654;28;20048;-88
2021/09/12 07:04:39;;;;;;;13.57;6.93;;;16.70;92.20;;;;;;5054132;28;20037;-87
2021/09/12 07:07:05;;;;;;;11.52;6.70;;;16.70;92.00;;;;;;5045064;28;20072;-86
2021/09/12 07:09:30;;;;;;;13.68;7.35;;;16.80;91.80;;;;;;5051693;28;20029;-88
2021/09/12 07:11:56;;;;;;;16.15;6.78;;;16.90;91.80;;;;;;5062388;28;20040;-87
2021/09/12 07:14:22;;;;;;;11.40;7.05;;;17.00;92.10;;;;;;5056476;28;20024;-89
2021/09/12 07:16:47;;;;;;;10.82;6.32;;;17.00;91.70;;;;;;5055394;28;20033;-87
2021/09/12 07:19:13;;;;;;;11.38;6.10;;;17.00;91.60;;;;;;5037209;28;20025;-88
2021/09/12 07:21:38;;;;;;;13.38;7.00;;;17.00;91.50;;;;;;5037207;28;20032;-88
2021/09/12 07:24:04;;;;;;;13.10;6.60;;;17.20;91.50;;;;;;5037029;28;20024;-87
2021/09/12 07:26:30;;;;;;;14.20;7.03;;;17.40;91.40;;;;;;5054027;28;20105;-86
2021/09/12 07:28:56;;;;;;;14.38;7.03;;;17.60;91.10;;;;;;5054681;28;20486;-85
2021/09/12 07:31:21;;;;;;;13.27;7.00;;;17.70;90.80;;;;;;5036801;28;20025;-85
2021/09/12 07:33:47;;;;;;;14.68;6.75;;;17.80;90.60;;;;;;5053566;28;20477;-85
2021/09/12 07:36:13;;;;;;;10.40;6.38;;;17.90;90.40;;;;;;5020440;28;20108;-86
2021/09/12 07:38:38;;;;;;;11.10;6.60;;;18.00;90.60;;;;;;5036920;28;20025;-86
2021/09/12 07:41:04;;;;;;;10.07;6.68;;;18.10;90.20;;;;;;5053760;28;20032;-85
2021/09/12 07:43:30;;;;;;;10.45;6.80;;;18.20;90.00;;;;;;5053567;28;20470;-84
2021/09/12 07:45:55;;;;;;;10.93;6.30;;;18.20;89.30;;;;;;5053208;28;20021;-83
2021/09/12 07:48:21;;;;;;;14.60;7.15;;;18.30;89.30;;;;;;5032335;28;20444;-84
2021/09/12 07:50:47;;;;;;;13.82;7.25;;;18.30;89.10;;;;;;5032945;28;20037;-84
2021/09/12 07:53:13;;;;;;;11.57;6.40;;;18.40;88.90;;;;;;5044127;28;20083;-85
2021/09/12 07:55:39;;;;;;;11.93;6.38;;;18.60;88.50;;;;;;5020016;28;20076;-84
2021/09/12 07:58:04;;;;;;;11.15;6.00;;;18.70;87.60;;;;;;5053412;28;20131;-83
2021/09/12 08:00:30;;;;;;;9.90;5.70;;;18.80;87.30;;;;;;5052765;28;20129;-83
2021/09/12 08:02:56;;;;;;;12.85;5.85;;;18.90;86.80;;;;;;5053218;28;20035;-84
2021/09/12 08:05:21;;;;;;;11.13;5.13;;;19.00;86.10;;;;;;5036449;28;20048;-84
2021/09/12 08:07:47;;;;;;;10.40;5.35;;;19.10;85.80;;;;;;5052959;28;20032;-84
2021/09/12 08:10:13;;;;;;;10.52;5.38;;;19.20;85.40;;;;;;5054034;28;20120;-87
2021/09/12 08:12:38;;;;;;;10.75;5.82;;;19.40;85.30;;;;;;5054362;28;20500;-87
2021/09/12 08:15:05;;;;;;;13.52;5.97;;;19.40;84.90;;;;;;5032694;28;20084;-87
2021/09/12 08:17:30;;;;;;;10.98;5.28;;;19.50;84.80;;;;;;5052207;28;20456;-85
2021/09/12 08:19:56;;;;;;;11.57;5.28;;;19.60;84.50;;;;;;5014461;28;20049;-87
2021/09/12 08:22:22;;;;;;;10.60;5.28;;;19.70;84.00;;;;;;5032826;28;20033;-87
2021/09/12 08:24:47;;;;;;;9.35;5.18;;;19.70;82.90;;;;;;5032305;28;20033;-86
2021/09/12 08:27:13;;;;;;;11.00;4.97;;;19.80;82.40;;;;;;5032851;28;20088;-85
2021/09/12 08:29:38;;;;;;;10.80;5.72;;;19.90;82.40;;;;;;5034336;28;20029;-86
2021/09/12 08:32:04;;;;;;;7.75;5.25;;;19.90;82.60;;;;;;5032736;28;20404;-86
2021/09/12 08:34:30;;;;;;;11.23;5.28;;;20.00;82.70;;;;;;5032708;28;20390;-85
2021/09/12 08:36:56;;;;;;;10.25;5.43;;;20.10;82.70;;;;;;5032854;28;20026;-84
2021/09/12 08:39:21;;;;;;;14.75;5.45;;;20.20;81.70;;;;;;5034614;28;20030;-85
2021/09/12 08:41:47;;;;;;;13.27;4.97;;;20.30;81.60;;;;;;5035819;28;20677;-85
2021/09/12 08:44:18;;;;;;;9.00;4.85;;;20.40;81.00;;;;;;5052229;28;20043;-85
2021/09/12 08:46:46;;;;;;;12.60;4.18;;;20.40;80.90;;;;;;5053834;28;20498;-86
2021/09/12 08:49:11;;;;;;;8.68;4.35;;;20.40;80.90;;;;;;5035588;28;20059;-85
2021/09/12 08:51:37;;;;;;;8.07;3.58;;;20.60;80.50;;;;;;5051663;28;20052;-84
2021/09/12 08:54:03;;;;;;;8.00;3.85;;;20.70;80.60;;;;;;5035164;28;20562;-82
2021/09/12 08:56:28;;;;;;;11.02;3.63;;;20.70;80.30;;;;;;5035444;28;20123;-82
2021/09/12 08:58:54;;;;;;;14.75;5.30;;;20.70;79.30;;;;;;5053148;28;20025;-82
2021/09/12 09:01:33;;;;;;;13.02;4.90;;;20.60;79.90;;;;;;5053290;28;20705;-82
2021/09/12 09:04:03;;;;;;;8.55;3.65;;;20.50;80.30;;;;;;5053436;28;20036;-82
2021/09/12 09:06:36;;;;;;;11.20;3.70;;;20.40;80.10;;;;;;5053314;28;20096;-82
2021/09/12 09:09:04;;;;;;;10.45;3.80;;;20.30;79.60;;;;;;5053197;28;20032;-82
2021/09/12 09:11:35;;;;;;;7.93;3.72;;;20.20;80.20;;;;;;5035449;28;20136;-84
2021/09/12 09:14:13;;;;;;;7.70;3.10;;;20.00;80.70;;;;;;5053334;28;20104;-85
2021/09/12 09:16:38;;;;;;;10.07;3.08;;;19.80;80.50;;;;;;5035236;28;20025;-85
2021/09/12 09:19:06;;;;;;;5.15;2.80;;;19.60;81.10;;;;;;5035201;28;20074;-84
2021/09/12 09:21:39;;;;;;;7.78;2.58;;;19.80;81.50;;;;;;5051963;28;20044;-84
2021/09/12 09:24:25;;;;;;;5.70;2.30;;;20.00;81.50;;;;;;5052815;28;20013;-83
2021/09/12 09:26:56;;;;;;;6.50;2.75;;;20.30;78.90;;;;;;5033215;28;20021;-84
2021/09/12 09:29:35;;;;;;;5.72;2.38;;;20.60;79.40;;;;;;5020398;28;20028;-85
2021/09/12 09:32:14;;;;;;;8.88;2.78;;;20.80;78.10;;;;;;5052925;28;20021;-82
2021/09/12 09:34:45;;;;;;;7.53;2.00;;;21.00;77.10;;;;;;5030036;28;20421;-84
2021/09/12 09:37:13;;;;;;;6.22;1.80;;;21.00;76.90;;;;;;5038193;28;20027;-86
2021/09/12 09:39:50;;;;;;;3.28;1.90;;;21.00;76.20;;;;;;5037510;28;20036;-87
2021/09/12 09:42:36;;;;;;;6.90;1.92;;;20.90;75.60;;;;;;5054067;28;20083;-88
2021/09/12 09:45:03;;;;;;;10.65;1.90;;;20.70;75.80;;;;;;5047697;28;20040;-86
2021/09/12 09:47:29;;;;;;;6.75;1.70;;;20.50;76.50;;;;;;5056498;28;20494;-89
2021/09/12 09:50:14;;;;;;;7.43;1.85;;;20.50;76.70;;;;;;5056771;28;20063;-88
2021/09/12 09:52:42;;;;;;;3.72;1.70;;;20.60;75.70;;;;;;5019316;28;20029;-87
2021/09/12 09:55:08;;;;;;;8.20;2.38;;;20.60;75.80;;;;;;5031186;28;20490;-86
2021/09/12 09:57:35;;;;;;;7.70;2.08;;;20.50;75.70;;;;;;5053219;28;20039;-88
2021/09/12 10:00:02;;;;;;;5.47;2.03;;;20.40;76.50;;;;;;5056629;28;20035;-86
2021/09/12 10:02:28;;;;;;;6.53;2.17;;;20.20;77.00;;;;;;5038290;28;20033;-86
2021/09/12 10:04:54;;;;;;;7.43;2.28;;;20.20;77.30;;;;;;5038849;28;20167;-87
2021/09/12 10:07:20;;;;;;;4.22;2.33;;;20.20;77.20;;;;;;5038679;28;20025;-86
2021/09/12 10:09:46;;;;;;;5.85;2.20;;;20.20;77.70;;;;;;5022098;28;20029;-85
2021/09/12 10:12:13;;;;;;;4.85;2.22;;;20.20;77.60;;;;;;5037097;28;20099;-84
2021/09/12 10:14:52;;;;;;;9.88;2.38;;;20.20;77.40;;;;;;5053732;28;20106;-86
2021/09/12 10:17:27;;;;;;;7.20;2.33;;;20.40;76.80;;;;;;5036686;28;20811;-85
2021/09/12 10:20:17;;;;;;;7.20;2.20;;;20.60;77.40;;;;;;5037762;28;20029;-86
2021/09/12 10:23:01;;;;;;;9.35;2.55;;;20.90;76.00;;;;;;5037869;28;20029;-86
2021/09/12 10:25:32;;;;;;;5.95;2.42;;;21.10;74.80;;;;;;5037754;28;20477;-85
2021/09/12 10:28:00;;;;;;;4.60;2.28;;;21.30;75.00;;;;;;5055277;28;20393;-85
2021/09/12 10:30:29;;;;;;;7.20;2.40;;;21.50;74.80;;;;;;5056056;28;20059;-85
2021/09/12 10:33:11;;;;;;;4.82;1.90;;;21.80;73.40;;;;;;5038030;28;20036;-85
2021/09/12 10:35:47;;;;;;;7.28;2.28;;;22.00;72.20;;;;;;5055912;28;20032;-85
2021/09/12 10:38:22;;;;;;;5.43;2.20;;;22.20;71.10;;;;;;5037472;28;20036;-86
2021/09/12 10:40:48;;;;;;;5.68;1.95;;;22.20;70.50;;;;;;5037920;28;20033;-86
2021/09/12 10:43:26;;;;;;;9.10;2.40;;;22.00;70.00;;;;;;5038022;28;20363;-86
2021/09/12 10:46:04;;;;;;;6.40;2.10;;;21.70;71.20;;;;;;5055512;28;20040;-84
2021/09/12 10:48:49;;;;;;;6.50;2.28;;;21.60;72.30;;;;;;5054149;28;20057;-85
2021/09/12 10:51:18;;;;;;;5.65;1.85;;;21.50;70.70;;;;;;5037944;28;20078;-85
2021/09/12 10:53:46;;;;;;;6.78;1.98;;;21.60;71.00;;;;;;5037630;28;20112;-82
2021/09/12 10:56:18;;;;;;;;;;;21.80;71.20;;;;;;5055514;28;20025;-82
2021/09/12 10:58:44;;;;;;;10.93;2.35;;;21.80;70.40;;;;;;5055641;28;19920;-82
2021/09/12 11:01:14;;;;;;;6.82;2.35;;;21.80;70.60;;;;;;5055228;28;20053;-82
2021/09/12 11:03:45;;;;;;;5.72;2.30;;;21.70;71.80;;;;;;5055484;28;20033;-82
2021/09/12 11:06:17;;;;;;;4.85;2.30;;;21.60;72.00;;;;;;5055303;28;20029;-82
2021/09/12 11:08:44;;;;;;;7.65;2.33;;;21.50;72.00;;;;;;5055363;28;20025;-82
2021/09/12 11:11:10;;;;;;;7.38;2.45;;;21.30;73.40;;;;;;5021013;28;20040;-81
2021/09/12 11:13:38;;;;;;;7.25;2.60;;;21.20;72.60;;;;;;5055095;28;20029;-81
2021/09/12 11:16:19;;;;;;;8.03;2.20;;;21.20;73.20;;;;;;5037094;28;20025;-82
2021/09/12 11:18:46;;;;;;;5.75;2.03;;;21.20;73.20;;;;;;5054764;28;20354;-81
2021/09/12 11:21:22;;;;;;;7.30;2.15;;;21.40;73.90;;;;;;5054858;28;20021;-82
2021/09/12 11:23:48;;;;;;;8.55;2.60;;;21.70;72.80;;;;;;5054856;28;20174;-82
2021/09/12 11:26:13;;;;;;;9.02;2.35;;;22.00;70.60;;;;;;5036628;28;20509;-82
2021/09/12 11:28:39;;;;;;;9.63;2.08;;;22.40;71.10;;;;;;5036755;28;20083;-82
2021/09/12 11:31:04;;;;;;;8.02;2.50;;;22.70;69.70;;;;;;5036558;28;20490;-82
2021/09/12 11:33:50;;;;;;;6.32;2.42;;;22.70;69.60;;;;;;5053040;28;20056;-82
2021/09/12 11:36:16;;;;;;;6.63;2.15;;;22.70;70.10;;;;;;5052994;28;20045;-82
2021/09/12 11:38:42;;;;;;;8.00;2.42;;;22.50;69.70;;;;;;5035439;28;20041;-82
2021/09/12 11:41:08;;;;;;;8.32;2.50;;;22.40;69.70;;;;;;5035142;28;20040;-82
2021/09/12 11:43:36;;;;;;;5.68;2.42;;;22.30;70.20;;;;;;5052369;28;20551;-82
2021/09/12 11:46:11;;;;;;;9.65;2.50;;;22.50;69.30;;;;;;5051571;28;20178;-82
2021/09/12 11:48:39;;;;;;;7.45;2.40;;;22.60;69.10;;;;;;5053494;28;20036;-82
2021/09/12 11:51:05;;;;;;;6.95;2.70;;;22.80;69.20;;;;;;5034906;28;20044;-82
2021/09/12 11:53:32;;;;;;;6.70;2.65;;;22.80;68.40;;;;;;5052331;28;20406;-82
2021/09/12 11:56:10;;;;;;;7.15;2.50;;;22.70;67.60;;;;;;5052148;28;20048;-81
2021/09/12 11:58:37;;;;;;;8.57;2.88;;;22.70;67.70;;;;;;5052164;28;20033;-81
2021/09/12 12:01:04;;;;;;;6.60;2.67;;;22.60;68.00;;;;;;5051401;28;20057;-82
2021/09/12 12:03:31;;;;;;;11.13;2.85;;;22.60;68.60;;;;;;5030007;28;20548;-82
2021/09/12 12:05:58;;;;;;;6.20;2.60;;;22.70;68.80;;;;;;5036075;28;20033;-82
2021/09/12 12:08:24;;;;;;;6.30;2.30;;;22.70;68.30;;;;;;5035212;28;20104;-82
2021/09/12 12:10:50;;;;;;;8.50;2.40;;;22.80;68.80;;;;;;5035922;28;20029;-82
2021/09/12 12:13:16;;;;;;;6.30;2.28;;;23.00;68.90;;;;;;5035602;28;20074;-82
2021/09/12 12:15:47;;;;;;;7.15;2.60;;;23.30;68.40;;;;;;5052306;28;20025;-81
2021/09/12 12:18:15;;;;;;;10.45;2.80;;;23.30;66.50;;;;;;5052412;28;20048;-81
2021/09/12 12:20:43;;;;;;;6.72;2.65;;;23.20;66.30;;;;;;5053749;28;20390;-82
2021/09/12 12:23:21;;;;;;;6.93;2.92;;;23.10;67.60;;;;;;5036196;28;20595;-81
2021/09/12 12:25:47;;;;;;;5.80;2.38;;;22.90;67.50;;;;;;5053797;28;20104;-82
2021/09/12 12:28:17;;;;;;;9.45;2.83;;;22.80;68.30;;;;;;5052365;28;20025;-81
2021/09/12 12:30:45;;;;;;;5.72;2.60;;;22.70;68.20;;;;;;5035867;28;20087;-81
2021/09/12 12:33:14;;;;;;;7.25;2.58;;;22.70;68.60;;;;;;5052662;28;20021;-82
2021/09/12 12:35:40;;;;;;;5.63;2.40;;;22.80;68.90;;;;;;5035496;28;20025;-82
2021/09/12 12:38:05;;;;;;;8.70;3.15;;;22.90;68.70;;;;;;5052459;28;20509;-81